createdAt,value
2018-03-30T00:00:07.843Z,86.00
2018-03-30T00:02:35.388Z,86.90
2018-03-30T00:05:02.929Z,86.80
2018-03-30T00:07:30.485Z,86.80
2018-03-30T00:09:58.033Z,86.70
2018-03-30T00:12:25.561Z,86.90
2018-03-30T00:14:53.105Z,87.00
2018-03-30T00:17:20.631Z,86.80
2018-03-30T00:19:48.173Z,87.30
2018-03-30T00:22:15.713Z,88.30
2018-03-30T00:24:43.258Z,88.80
2018-03-30T00:27:11.556Z,89.10
2018-03-30T00:29:39.096Z,89.00
2018-03-30T00:32:07.397Z,89.40
2018-03-30T00:34:34.932Z,89.30
2018-03-30T00:37:03.225Z,88.70
2018-03-30T00:39:30.769Z,88.50
2018-03-30T00:41:59.061Z,89.10
2018-03-30T00:44:26.601Z,89.10
2018-03-30T00:46:54.140Z,88.70
2018-03-30T00:49:21.708Z,88.70
2018-03-30T00:51:49.677Z,89.00
2018-03-30T00:54:17.987Z,90.10
2018-03-30T00:56:45.511Z,90.00
2018-03-30T00:59:13.821Z,90.20
2018-03-30T01:01:41.345Z,90.20
2018-03-30T01:04:08.894Z,90.10
2018-03-30T01:06:37.205Z,90.00
2018-03-30T01:09:04.755Z,90.40
2018-03-30T01:11:32.287Z,89.50
2018-03-30T01:14:00.598Z,89.70
2018-03-30T01:16:28.130Z,89.80
2018-03-30T01:18:56.462Z,88.80
2018-03-30T01:21:23.987Z,88.80
2018-03-30T01:23:52.283Z,88.20
2018-03-30T01:26:19.821Z,88.20
2018-03-30T01:28:47.341Z,88.00
2018-03-30T01:31:14.883Z,88.40
2018-03-30T01:33:42.405Z,88.30
2018-03-30T01:36:09.961Z,88.70
2018-03-30T01:38:37.519Z,89.00
2018-03-30T01:41:05.076Z,88.80
2018-03-30T01:43:32.609Z,88.90
2018-03-30T01:46:00.157Z,89.00
2018-03-30T01:48:28.470Z,89.20
2018-03-30T01:50:56.029Z,89.20
2018-03-30T01:53:23.570Z,89.50
2018-03-30T01:55:51.118Z,90.00
2018-03-30T01:58:18.655Z,90.20
2018-03-30T02:00:46.210Z,90.10
2018-03-30T02:03:14.514Z,90.10
2018-03-30T02:05:42.134Z,90.10
2018-03-30T02:08:09.689Z,90.00
2018-03-30T02:10:37.247Z,90.10
2018-03-30T02:13:04.782Z,89.80
2018-03-30T02:15:32.348Z,89.60
2018-03-30T02:17:59.940Z,89.60
2018-03-30T02:20:28.274Z,89.60
2018-03-30T02:22:55.809Z,89.60
2018-03-30T02:25:23.364Z,89.70
2018-03-30T02:27:51.675Z,89.20
2018-03-30T02:30:19.721Z,89.10
2018-03-30T02:32:47.310Z,88.90
2018-03-30T02:35:14.853Z,89.50
2018-03-30T02:37:42.416Z,89.90
2018-03-30T02:40:09.968Z,89.60
2018-03-30T02:42:37.519Z,90.00
2018-03-30T02:45:05.085Z,90.00
2018-03-30T02:47:32.618Z,90.00
2018-03-30T02:50:00.192Z,90.00
2018-03-30T02:52:27.738Z,89.80
2018-03-30T02:54:55.288Z,89.60
2018-03-30T02:57:22.815Z,89.90
2018-03-30T02:59:50.334Z,90.20
2018-03-30T03:02:17.882Z,90.30
2018-03-30T03:04:45.427Z,90.30
2018-03-30T03:07:12.987Z,90.20
2018-03-30T03:09:40.533Z,90.10
2018-03-30T03:12:08.841Z,89.70
2018-03-30T03:14:36.367Z,89.60
2018-03-30T03:17:03.930Z,90.00
2018-03-30T03:19:31.481Z,89.90
2018-03-30T03:21:59.021Z,90.10
2018-03-30T03:24:26.574Z,89.30
2018-03-30T03:26:54.121Z,87.50
2018-03-30T03:29:21.650Z,87.90
2018-03-30T03:31:49.187Z,88.00
2018-03-30T03:34:16.705Z,88.60
2018-03-30T03:36:44.286Z,89.00
2018-03-30T03:39:11.804Z,89.60
2018-03-30T03:41:40.114Z,90.00
2018-03-30T03:44:07.662Z,90.00
2018-03-30T03:46:35.196Z,90.20
2018-03-30T03:49:02.727Z,90.30
2018-03-30T03:51:30.283Z,90.50
2018-03-30T03:53:57.839Z,90.40
2018-03-30T03:56:25.396Z,90.30
2018-03-30T03:58:53.039Z,90.30
2018-03-30T04:01:20.590Z,90.40
2018-03-30T04:03:48.116Z,90.90
2018-03-30T04:06:15.653Z,91.40
2018-03-30T04:08:43.173Z,91.20
2018-03-30T04:11:10.704Z,91.20
2018-03-30T04:13:38.238Z,91.30
2018-03-30T04:16:06.548Z,91.20
2018-03-30T04:18:34.077Z,91.20
2018-03-30T04:21:01.613Z,91.20
2018-03-30T04:23:29.155Z,91.20
2018-03-30T04:25:56.735Z,91.30
2018-03-30T04:28:24.263Z,91.20
2018-03-30T04:30:51.800Z,91.00
2018-03-30T04:33:19.321Z,90.90
2018-03-30T04:35:47.646Z,90.50
2018-03-30T04:38:15.200Z,90.60
2018-03-30T04:40:42.723Z,90.50
2018-03-30T04:43:10.273Z,90.40
2018-03-30T04:45:37.801Z,90.10
2018-03-30T04:48:05.376Z,89.80
2018-03-30T04:50:32.909Z,89.70
2018-03-30T04:53:00.441Z,89.30
2018-03-30T04:55:27.978Z,90.00
2018-03-30T04:57:55.522Z,90.00
2018-03-30T05:00:23.049Z,89.90
2018-03-30T05:02:50.586Z,89.90
2018-03-30T05:05:18.112Z,90.00
2018-03-30T05:07:45.657Z,90.20
2018-03-30T05:10:13.182Z,90.30
2018-03-30T05:12:41.497Z,90.30
2018-03-30T05:15:09.785Z,90.00
2018-03-30T05:17:37.340Z,90.00
2018-03-30T05:20:04.862Z,89.30
2018-03-30T05:22:32.400Z,88.40
2018-03-30T05:24:59.912Z,88.30
2018-03-30T05:27:28.221Z,88.70
2018-03-30T05:29:55.772Z,88.50
2018-03-30T05:32:23.313Z,88.50
2018-03-30T05:34:50.837Z,87.70
2018-03-30T05:37:18.373Z,87.80
2018-03-30T05:39:46.690Z,87.70
2018-03-30T05:42:14.232Z,87.70
2018-03-30T05:44:41.754Z,87.40
2018-03-30T05:47:09.298Z,87.10
2018-03-30T05:49:36.833Z,86.60
2018-03-30T05:52:04.377Z,85.70
2018-03-30T05:54:31.910Z,84.90
2018-03-30T05:56:59.462Z,83.80
2018-03-30T05:59:26.990Z,82.80
2018-03-30T06:01:54.526Z,82.40
2018-03-30T06:04:22.045Z,81.20
2018-03-30T06:06:49.566Z,79.60
2018-03-30T06:09:17.872Z,78.80
2018-03-30T06:11:46.163Z,77.90
2018-03-30T06:14:13.710Z,77.90
2018-03-30T06:16:41.231Z,77.20
2018-03-30T06:19:08.788Z,75.90
2018-03-30T06:21:36.322Z,75.90
2018-03-30T06:24:03.910Z,76.40
2018-03-30T06:26:32.195Z,74.50
2018-03-30T06:29:00.512Z,73.70
2018-03-30T06:31:28.041Z,73.70
2018-03-30T06:33:55.573Z,72.90
2018-03-30T06:36:23.109Z,72.40
2018-03-30T06:38:50.649Z,71.20
2018-03-30T06:41:18.177Z,70.30
2018-03-30T06:43:45.716Z,70.00
2018-03-30T06:46:13.246Z,69.20
2018-03-30T06:48:40.781Z,70.00
2018-03-30T06:51:08.293Z,69.30
2018-03-30T06:53:36.623Z,68.20
2018-03-30T06:56:04.156Z,68.00
2018-03-30T06:58:31.703Z,64.80
2018-03-30T07:00:59.231Z,61.90
2018-03-30T07:03:27.549Z,57.00
2018-03-30T07:05:55.097Z,56.90
2018-03-30T07:08:22.647Z,56.70
2018-03-30T07:10:50.180Z,56.20
2018-03-30T07:13:17.739Z,54.50
2018-03-30T07:15:46.037Z,54.30
2018-03-30T07:18:13.585Z,54.30
2018-03-30T07:20:41.155Z,56.20
2018-03-30T07:23:08.713Z,56.70
2018-03-30T07:25:36.245Z,58.40
2018-03-30T07:28:04.790Z,58.60
2018-03-30T07:30:32.327Z,58.60
2018-03-30T07:32:59.878Z,57.00
2018-03-30T07:35:27.405Z,55.70
2018-03-30T07:37:54.958Z,54.20
2018-03-30T07:40:22.509Z,51.80
2018-03-30T07:42:50.845Z,47.00
2018-03-30T07:45:18.393Z,47.00
2018-03-30T07:47:45.929Z,44.80
2018-03-30T07:50:14.246Z,36.50
2018-03-30T07:52:41.795Z,36.50
2018-03-30T07:55:10.050Z,36.80
2018-03-30T07:57:37.585Z,37.20
2018-03-30T08:00:05.151Z,37.80
2018-03-30T08:02:32.683Z,37.40
2018-03-30T08:05:00.990Z,40.90
2018-03-30T08:07:28.530Z,40.80
2018-03-30T08:09:56.115Z,42.20
2018-03-30T08:12:23.657Z,44.30
2018-03-30T08:14:51.234Z,42.40
2018-03-30T08:17:18.763Z,41.90
2018-03-30T08:19:46.312Z,40.70
2018-03-30T08:22:13.849Z,42.50
2018-03-30T08:24:41.390Z,43.20
2018-03-30T08:27:08.911Z,43.80
2018-03-30T08:29:36.466Z,44.00
2018-03-30T08:32:03.998Z,44.30
2018-03-30T08:34:32.311Z,46.50
2018-03-30T08:36:59.840Z,46.40
2018-03-30T08:39:27.387Z,46.00
2018-03-30T08:41:54.962Z,44.80
2018-03-30T08:44:22.491Z,43.30
2018-03-30T08:46:50.785Z,44.80
2018-03-30T08:49:18.388Z,44.70
2018-03-30T08:51:45.881Z,42.90
2018-03-30T08:54:14.195Z,43.60
2018-03-30T08:56:41.721Z,43.50
2018-03-30T08:59:10.057Z,39.30
2018-03-30T09:01:37.587Z,39.20
2018-03-30T09:04:05.139Z,40.70
2018-03-30T09:06:32.674Z,41.10
2018-03-30T09:09:01.002Z,41.80
2018-03-30T09:11:28.538Z,41.70
2018-03-30T09:13:56.096Z,40.30
2018-03-30T09:16:23.631Z,38.30
2018-03-30T09:18:51.165Z,38.00
2018-03-30T09:21:18.703Z,36.60
2018-03-30T09:23:46.255Z,36.40
2018-03-30T09:26:13.786Z,36.40
2018-03-30T09:28:41.311Z,35.80
2018-03-30T09:31:09.771Z,33.20
2018-03-30T09:33:37.313Z,33.10
2018-03-30T09:36:04.878Z,32.50
2018-03-30T09:38:32.412Z,34.90
2018-03-30T09:40:59.957Z,35.00
2018-03-30T09:43:27.488Z,34.80
2018-03-30T09:45:55.034Z,34.50
2018-03-30T09:48:23.349Z,36.90
2018-03-30T09:50:50.894Z,36.90
2018-03-30T09:53:18.424Z,38.70
2018-03-30T09:55:46.746Z,36.60
2018-03-30T09:58:14.274Z,36.50
2018-03-30T10:00:43.717Z,36.00
2018-03-30T10:03:11.242Z,37.80
2018-03-30T10:05:38.785Z,37.70
2018-03-30T10:08:07.881Z,41.50
2018-03-30T10:10:35.430Z,41.50
2018-03-30T10:13:03.737Z,44.30
2018-03-30T10:15:32.055Z,45.20
2018-03-30T10:17:59.597Z,45.00
2018-03-30T10:20:27.144Z,44.90
2018-03-30T10:22:54.674Z,45.20
2018-03-30T10:25:22.232Z,44.30
2018-03-30T10:27:49.748Z,45.40
2018-03-30T10:30:17.311Z,45.00
2018-03-30T10:32:44.832Z,45.60
2018-03-30T10:35:12.390Z,43.40
2018-03-30T10:37:39.926Z,45.60
2018-03-30T10:40:07.482Z,44.10
2018-03-30T10:42:35.006Z,44.70
2018-03-30T10:45:02.557Z,44.70
2018-03-30T10:47:30.864Z,44.80
2018-03-30T10:49:58.401Z,44.80
2018-03-30T10:52:26.702Z,45.80
2018-03-30T10:54:54.253Z,45.70
2018-03-30T10:57:21.830Z,43.70
2018-03-30T10:59:49.346Z,44.50
2018-03-30T11:02:17.634Z,44.20
2018-03-30T11:04:45.178Z,44.30
2018-03-30T11:07:13.491Z,44.90
2018-03-30T11:09:41.014Z,44.90
2018-03-30T11:12:08.556Z,44.20
2018-03-30T11:14:36.069Z,45.40
2018-03-30T11:17:03.618Z,44.70
2018-03-30T11:19:31.148Z,43.80
2018-03-30T11:21:58.705Z,43.30
2018-03-30T11:24:26.989Z,43.80
2018-03-30T11:26:54.532Z,43.80
2018-03-30T11:29:22.826Z,42.90
2018-03-30T11:31:50.365Z,42.90
2018-03-30T11:34:18.677Z,43.00
2018-03-30T11:36:46.236Z,43.00
2018-03-30T11:39:13.761Z,42.60
2018-03-30T11:41:41.308Z,41.70
2018-03-30T11:44:08.834Z,42.10
2018-03-30T11:46:36.387Z,43.20
2018-03-30T11:49:03.926Z,41.30
2018-03-30T11:51:31.469Z,42.00
2018-03-30T11:53:59.002Z,43.40
2018-03-30T11:56:27.320Z,42.70
2018-03-30T11:58:54.878Z,43.30
2018-03-30T12:01:22.429Z,41.80
2018-03-30T12:03:49.957Z,41.70
2018-03-30T12:06:17.493Z,42.00
2018-03-30T12:08:45.022Z,41.20
2018-03-30T12:11:12.566Z,42.20
2018-03-30T12:13:40.091Z,41.30
2018-03-30T12:16:07.631Z,42.70
2018-03-30T12:18:35.926Z,41.70
2018-03-30T12:21:03.500Z,41.60
2018-03-30T12:23:31.034Z,40.30
2018-03-30T12:25:58.598Z,41.30
2018-03-30T12:28:26.131Z,39.70
2018-03-30T12:30:53.669Z,39.40
2018-03-30T12:33:21.197Z,40.10
2018-03-30T12:35:48.737Z,39.30
2018-03-30T12:38:16.267Z,39.00
2018-03-30T12:40:44.580Z,40.00
2018-03-30T12:43:12.103Z,39.80
2018-03-30T12:45:40.389Z,41.50
2018-03-30T12:48:07.925Z,41.50
2018-03-30T12:50:35.454Z,39.90
2018-03-30T12:53:03.005Z,39.60
2018-03-30T12:55:30.537Z,38.00
2018-03-30T12:57:58.119Z,38.20
2018-03-30T13:00:25.633Z,38.50
2018-03-30T13:02:53.182Z,39.60
2018-03-30T13:05:20.713Z,39.00
2018-03-30T13:07:48.249Z,39.20
2018-03-30T13:10:15.764Z,39.70
2018-03-30T13:12:43.316Z,40.80
2018-03-30T13:15:10.833Z,40.20
2018-03-30T13:17:38.369Z,41.30
2018-03-30T13:20:05.898Z,40.60
2018-03-30T13:22:33.446Z,41.10
2018-03-30T13:25:00.969Z,42.50
2018-03-30T13:27:28.515Z,40.40
2018-03-30T13:29:56.047Z,41.10
2018-03-30T13:32:23.592Z,42.00
2018-03-30T13:34:51.113Z,41.10
2018-03-30T13:37:18.659Z,42.90
2018-03-30T13:39:46.191Z,42.00
2018-03-30T13:42:13.728Z,42.10
2018-03-30T13:44:41.245Z,41.50
2018-03-30T13:47:08.784Z,41.70
2018-03-30T13:49:36.302Z,41.20
2018-03-30T13:52:08.263Z,40.10
2018-03-30T13:54:38.494Z,40.50
2018-03-30T13:57:09.521Z,40.90
2018-03-30T13:59:37.041Z,40.80
2018-03-30T14:02:10.970Z,41.10
2018-03-30T14:04:55.939Z,40.40
2018-03-30T14:07:30.021Z,41.60
2018-03-30T14:09:58.313Z,40.80
2018-03-30T14:12:28.686Z,40.70
2018-03-30T14:14:56.220Z,39.70
2018-03-30T14:17:29.354Z,41.30
2018-03-30T14:22:53.118Z,41.50
2018-03-30T14:25:27.169Z,40.60
2018-03-30T14:28:06.260Z,41.60
2018-03-30T14:30:34.691Z,41.60
2018-03-30T14:33:03.922Z,40.10
2018-03-30T14:35:54.855Z,40.00
2018-03-30T14:38:23.230Z,40.40
2018-03-30T14:40:52.567Z,39.70
2018-03-30T14:43:20.877Z,40.60
2018-03-30T14:46:07.890Z,40.50
2018-03-30T14:49:00.230Z,41.60
2018-03-30T14:51:39.242Z,40.90
2018-03-30T14:54:08.669Z,40.80
2018-03-30T14:57:00.968Z,41.60
2018-03-30T14:59:32.969Z,40.30
2018-03-30T15:02:19.325Z,41.60
2018-03-30T15:04:53.114Z,39.50
2018-03-30T15:07:26.081Z,39.50
2018-03-30T15:12:53.631Z,39.40
2018-03-30T15:15:25.702Z,39.10
2018-03-30T15:18:24.867Z,39.50
2018-03-30T15:21:08.925Z,39.10
2018-03-30T15:23:37.266Z,40.20
2018-03-30T15:26:07.170Z,40.40
2018-03-30T15:28:39.197Z,40.30
2018-03-30T15:31:34.136Z,40.30
2018-03-30T15:34:09.009Z,39.20
2018-03-30T15:39:31.457Z,39.20
2018-03-30T15:41:59.778Z,40.10
2018-03-30T15:44:27.326Z,40.90
2018-03-30T15:47:10.319Z,41.10
2018-03-30T15:49:40.509Z,38.70
2018-03-30T15:52:09.557Z,39.00
2018-03-30T15:54:37.112Z,39.20
2018-03-30T15:57:04.629Z,39.90
2018-03-30T15:59:32.155Z,39.60
2018-03-30T16:01:59.696Z,39.60
2018-03-30T16:04:27.219Z,38.60
2018-03-30T16:06:54.813Z,39.40
2018-03-30T16:09:23.963Z,39.60
2018-03-30T16:11:51.501Z,39.70
2018-03-30T16:14:19.857Z,40.00
2018-03-30T16:16:47.389Z,39.90
2018-03-30T16:19:14.421Z,40.50
2018-03-30T16:21:41.534Z,41.50
2018-03-30T16:24:08.622Z,42.10
2018-03-30T16:26:35.668Z,42.80
2018-03-30T16:29:02.704Z,43.80
2018-03-30T16:31:29.786Z,44.10
2018-03-30T16:33:56.817Z,45.70
2018-03-30T16:36:23.853Z,45.50
2018-03-30T16:38:50.943Z,45.90
2018-03-30T16:41:18.741Z,46.70
2018-03-30T16:43:45.797Z,46.60
2018-03-30T16:46:12.824Z,48.10
2018-03-30T16:48:39.876Z,49.10
2018-03-30T16:51:06.903Z,50.00
2018-03-30T16:53:33.950Z,49.60
2018-03-30T16:56:00.988Z,48.80
2018-03-30T16:58:28.801Z,49.60
2018-03-30T17:00:55.834Z,49.50
2018-03-30T17:03:22.895Z,50.40
2018-03-30T17:05:49.933Z,50.50
2018-03-30T17:08:16.974Z,50.70
2018-03-30T17:10:43.993Z,50.40
2018-03-30T17:13:11.037Z,51.30
2018-03-30T17:15:38.066Z,51.60
2018-03-30T17:18:05.873Z,51.30
2018-03-30T17:20:32.899Z,51.30
2018-03-30T17:22:59.951Z,51.20
2018-03-30T17:25:26.997Z,52.00
2018-03-30T17:27:54.821Z,52.90
2018-03-30T17:30:21.860Z,52.60
2018-03-30T17:32:48.902Z,52.30
2018-03-30T17:35:15.929Z,52.00
2018-03-30T17:37:42.986Z,52.50
2018-03-30T17:40:10.014Z,52.50
2018-03-30T17:42:37.062Z,52.50
2018-03-30T17:45:04.109Z,52.30
2018-03-30T17:47:31.190Z,52.20
2018-03-30T17:49:58.239Z,52.40
2018-03-30T17:52:26.051Z,52.70
2018-03-30T17:54:53.083Z,52.60
2018-03-30T17:57:20.140Z,51.50
2018-03-30T17:59:47.206Z,52.20
2018-03-30T18:02:14.255Z,51.30
2018-03-30T18:04:41.306Z,51.70
2018-03-30T18:07:08.351Z,51.90
2018-03-30T18:09:35.418Z,52.80
2018-03-30T18:12:02.455Z,52.50
2018-03-30T18:14:29.549Z,51.90
2018-03-30T18:16:56.609Z,52.00
2018-03-30T18:19:23.649Z,51.90
2018-03-30T18:21:50.695Z,51.10
2018-03-30T18:24:17.749Z,51.20
2018-03-30T18:26:44.782Z,50.90
2018-03-30T18:29:11.858Z,50.70
2018-03-30T18:31:38.910Z,51.20
2018-03-30T18:34:05.967Z,51.20
2018-03-30T18:36:33.007Z,50.70
2018-03-30T18:39:00.494Z,50.60
2018-03-30T18:41:27.525Z,50.40
2018-03-30T18:43:54.569Z,50.00
2018-03-30T18:46:21.602Z,50.20
2018-03-30T18:48:48.648Z,50.60
2018-03-30T18:51:15.690Z,50.60
2018-03-30T18:53:42.758Z,50.90
2018-03-30T18:56:09.793Z,51.00
2018-03-30T18:58:36.847Z,51.80
2018-03-30T19:01:03.880Z,51.40
2018-03-30T19:03:30.927Z,52.20
2018-03-30T19:05:57.959Z,51.60
2018-03-30T19:08:25.826Z,52.20
2018-03-30T19:10:52.858Z,52.10
2018-03-30T19:13:19.921Z,52.30
2018-03-30T19:15:46.945Z,52.40
2018-03-30T19:18:13.966Z,51.90
2018-03-30T19:20:41.031Z,52.20
2018-03-30T19:23:08.063Z,52.00
2018-03-30T19:25:35.191Z,52.20
2018-03-30T19:28:02.989Z,52.50
2018-03-30T19:30:30.035Z,52.40
2018-03-30T19:32:57.068Z,53.00
2018-03-30T19:35:24.120Z,53.00
2018-03-30T19:37:51.149Z,52.90
2018-03-30T19:40:18.192Z,53.10
2018-03-30T19:42:45.295Z,53.50
2018-03-30T19:45:12.360Z,54.20
2018-03-30T19:47:39.389Z,54.80
2018-03-30T19:50:06.442Z,54.50
2018-03-30T19:52:33.484Z,54.90
2018-03-30T19:55:00.531Z,54.60
2018-03-30T19:57:27.562Z,54.90
2018-03-30T19:59:54.610Z,54.70
2018-03-30T20:02:21.659Z,55.10
2018-03-30T20:04:48.713Z,55.60
2018-03-30T20:07:15.740Z,56.00
2018-03-30T20:09:42.846Z,56.00
2018-03-30T20:12:09.845Z,56.40
2018-03-30T20:14:36.894Z,56.60
2018-03-30T20:17:03.919Z,56.80
2018-03-30T20:19:30.960Z,57.20
2018-03-30T20:21:57.988Z,57.10
2018-03-30T20:24:25.035Z,57.40
2018-03-30T20:26:52.067Z,57.80
2018-03-30T20:29:19.131Z,57.80
2018-03-30T20:31:46.175Z,57.80
2018-03-30T20:34:13.223Z,57.90
2018-03-30T20:36:40.266Z,58.30
2018-03-30T20:39:07.306Z,58.50
2018-03-30T20:41:34.347Z,58.70
2018-03-30T20:44:01.385Z,58.50
2018-03-30T20:46:28.424Z,58.90
2018-03-30T20:48:55.459Z,58.60
2018-03-30T20:51:23.279Z,59.20
2018-03-30T20:53:51.095Z,59.20
2018-03-30T20:56:18.905Z,59.00
2018-03-30T20:58:45.931Z,58.90
2018-03-30T21:01:12.968Z,59.50
2018-03-30T21:03:39.998Z,59.60
2018-03-30T21:06:07.812Z,60.20
2018-03-30T21:08:34.902Z,60.20
2018-03-30T21:11:01.922Z,60.30
2018-03-30T21:13:28.945Z,60.70
2018-03-30T21:15:55.998Z,60.90
2018-03-30T21:18:23.030Z,61.10
2018-03-30T21:20:50.085Z,61.20
2018-03-30T21:23:17.122Z,61.00
2018-03-30T21:25:44.181Z,61.00
2018-03-30T21:28:11.217Z,60.90
2018-03-30T21:30:38.262Z,61.10
2018-03-30T21:33:05.294Z,61.10
2018-03-30T21:35:32.407Z,61.80
2018-03-30T21:37:59.478Z,62.10
2018-03-30T21:40:26.542Z,62.70
2018-03-30T21:42:53.572Z,62.50
2018-03-30T21:45:20.628Z,62.60
2018-03-30T21:47:47.683Z,62.60
2018-03-30T21:50:14.731Z,62.80
2018-03-30T21:52:41.778Z,62.70
2018-03-30T21:55:08.821Z,62.60
2018-03-30T21:57:35.858Z,63.00
2018-03-30T22:00:02.915Z,63.60
2018-03-30T22:02:29.954Z,64.00
2018-03-30T22:04:57.005Z,64.80
2018-03-30T22:07:24.041Z,64.50
2018-03-30T22:09:51.098Z,64.60
2018-03-30T22:12:18.148Z,64.80
2018-03-30T22:14:45.182Z,64.80
2018-03-30T22:17:12.221Z,65.00
2018-03-30T22:19:39.242Z,64.90
2018-03-30T22:22:06.313Z,65.60
2018-03-30T22:24:33.357Z,66.00
2018-03-30T22:27:00.437Z,66.30
2018-03-30T22:29:27.468Z,66.40
2018-03-30T22:31:54.521Z,66.00
2018-03-30T22:34:21.556Z,65.90
2018-03-30T22:36:48.618Z,66.50
2018-03-30T22:39:15.658Z,66.30
2018-03-30T22:41:42.705Z,65.70
2018-03-30T22:44:09.741Z,66.30
2018-03-30T22:46:36.790Z,66.30
2018-03-30T22:49:03.878Z,66.60
2018-03-30T22:51:31.699Z,66.30
2018-03-30T22:53:58.729Z,66.30
2018-03-30T22:56:25.778Z,66.20
2018-03-30T22:58:52.802Z,66.40
2018-03-30T23:01:19.853Z,66.40
2018-03-30T23:03:46.877Z,66.40
2018-03-30T23:06:13.952Z,66.50
2018-03-30T23:08:40.968Z,67.10
2018-03-30T23:11:08.042Z,66.80
2018-03-30T23:13:35.074Z,66.70
2018-03-30T23:16:02.124Z,66.80
2018-03-30T23:18:29.159Z,67.40
2018-03-30T23:20:56.207Z,67.50
2018-03-30T23:23:23.233Z,67.70
2018-03-30T23:25:50.285Z,68.10
2018-03-30T23:28:18.131Z,68.00
2018-03-30T23:30:45.958Z,68.10
2018-03-30T23:33:12.990Z,68.10
2018-03-30T23:35:40.022Z,67.90
2018-03-30T23:38:07.064Z,68.10
2018-03-30T23:40:34.089Z,68.20
2018-03-30T23:43:01.910Z,68.50
2018-03-30T23:45:28.954Z,68.50
2018-03-30T23:47:56.013Z,68.60
2018-03-30T23:50:23.050Z,68.90
2018-03-30T23:52:50.094Z,69.20
2018-03-30T23:55:17.120Z,69.40
2018-03-30T23:57:44.165Z,69.60
